Great Falls, MT

10:03 PM MDT on October 25, 2014 (GMT -0600)
Milligan | Change Station
CLOSE
Current Station
Personal Weather Station
Location: Cascade, MT
Elevation: 5849 ft
Nearby Weather Stations

Elev 5849 ft 47.05 °N, 111.39 °W | Updated 249 days ago

Partly Cloudy
Partly Cloudy
52 °F
Feels Like 52 °F
N
14
Wind Variable Wind from SW
Gusts 20 mph

Today
High -- | Low -- °F
--% Chance of Precip.
Yesterday
High -- | Low -- °F
Precip. -- in
7:58 AM 6:20 PM
Waxing Crescent, 5% visible
Pressure 29.67 in
Visibility 10.0 miles
Clouds Clear
Dew Point 34 °F
Humidity 51%
Rainfall 0.00 in
Snow Depth Not available.
UV 0 out of 12
Pollen 2.70 out of 12
Air Quality Not available.
Flu Activity No Activity
METAR KGFA 260356Z AUTO 16003KT 10SM CLR 05/04 A2961 RMK AO2 SLP046 T00490035

More Conditions Fewer Conditions

Pressure 29.67 in
Visibility 10.0 miles
Clouds Clear
Dew Point 34 °F
Humidity 51%
Rainfall 0.00 in
Snow Depth Not available.
UV 0 out of 12
Pollen 2.70 out of 12
Air Quality Not available.
Flu Activity No Activity
METAR KGFA 260356Z AUTO 16003KT 10SM CLR 05/04 A2961 RMK AO2 SLP046 T00490035

More Conditions Fewer Conditions

10-Day Weather Forecast

Almanac

Astronomy

Oct. 25, 2014 Rise Set
Actual Time 7:58 AM MDT 6:20 PM MDT
Civil Twilight 7:26 AM MDT 6:51 PM MDT
Nautical Twilight 6:51 AM MDT 7:27 PM MDT
Astronomical Twilight 6:15 AM MDT 8:02 PM MDT
Moon 9:45 AM MDT (10/25) 7:40 PM MDT (10/25)
Length of Visible Light 11h 24m
Length of Day
10h 22m
Tomorrow will be 3m 7s shorter.
Waxing Crescent, 5% of the Moon is Illuminated
Oct 26
Waxing Crescent
Oct 30
First Quarter
Nov 6
Full
Nov 14
Last Quarter
Nov 22
New

Today's Extremes

State Highs State Lows

Community

WunderPhotos

Upload Photos

1,765,106 photos uploaded!

Nearby

Snow Depth

Station Depth Elevation
Onion Park 0 in 7410 ft
Spur Park 0 in 8100 ft
Copper Bottom 0 in 5200 ft
Rocker Peak 0 in 8000 ft
Wood Creek 0 in 5960 ft

Earthquake Activity

City Distance Mag. Time & Date
No recent earthquake activity has been reported nearby.
Minimum magnitude displayed is 2.5.

Coastal Water Temperatures

Place Temperature
No Stations Reporting

Nearby Weather Stations